Aranjuez, Spain
Current Conditions -  °F | °C
As of 7:00 PM on Friday 31 Oct 2014 (Local Time) from LEGT Reporting Station
Clear Clear  
Wind Chill: 66°   Ceiling: Unl
Heat Index: 66°   Visibility: 6mi
Dew Point: 43°   Wind: 2mph
Humidity: 43%   Direction: 270°W
Pressure: 30.21"   Gusts: NA
Location:  40.03°N, 3.6°W
Report Text: LEGT 311800Z 27002KT CAVOK 19/06 Q1023
Loading
Personal Weather Stations






























Interactive Weather Map
Tropical Storm Tracking
New forecast layout! Learn more

10-Day Weather Forecast

Advertisements
Track Severe Weather on mobile